sensor_id;sensor_type;location;lat;lon;timestamp;temperature;humidity
64226;DHT22;50545;56.064;26.178;2022-08-21T00:00:26;16.00;99.90
64226;DHT22;50545;56.064;26.178;2022-08-21T00:02:57;16.00;99.90
64226;DHT22;50545;56.064;26.178;2022-08-21T00:05:25;16.00;99.90
64226;DHT22;50545;56.064;26.178;2022-08-21T00:07:53;16.00;99.90
64226;DHT22;50545;56.064;26.178;2022-08-21T00:10:22;16.00;99.90
64226;DHT22;50545;56.064;26.178;2022-08-21T00:12:49;16.00;99.90
64226;DHT22;50545;56.064;26.178;2022-08-21T00:15:23;16.00;99.90
64226;DHT22;50545;56.064;26.178;2022-08-21T00:17:54;16.00;99.90
64226;DHT22;50545;56.064;26.178;2022-08-21T00:20:22;16.10;99.90
64226;DHT22;50545;56.064;26.178;2022-08-21T00:22:50;16.10;99.90
64226;DHT22;50545;56.064;26.178;2022-08-21T00:25:19;16.10;99.90
64226;DHT22;50545;56.064;26.178;2022-08-21T00:27:52;16.10;99.90
64226;DHT22;50545;56.064;26.178;2022-08-21T00:30:20;16.10;99.90
64226;DHT22;50545;56.064;26.178;2022-08-21T00:32:50;16.10;99.90
64226;DHT22;50545;56.064;26.178;2022-08-21T00:35:21;16.10;99.90
64226;DHT22;50545;56.064;26.178;2022-08-21T00:37:49;16.10;99.90
64226;DHT22;50545;56.064;26.178;2022-08-21T00:40:20;16.10;99.90
64226;DHT22;50545;56.064;26.178;2022-08-21T00:42:48;16.10;99.90
64226;DHT22;50545;56.064;26.178;2022-08-21T00:45:21;16.10;99.90
64226;DHT22;50545;56.064;26.178;2022-08-21T00:47:50;16.10;99.90
64226;DHT22;50545;56.064;26.178;2022-08-21T00:50:18;16.10;99.90
64226;DHT22;50545;56.064;26.178;2022-08-21T00:52:49;16.10;99.90
64226;DHT22;50545;56.064;26.178;2022-08-21T00:55:18;16.10;99.90
64226;DHT22;50545;56.064;26.178;2022-08-21T00:57:51;16.10;99.90
64226;DHT22;50545;56.064;26.178;2022-08-21T01:00:23;16.10;99.90
64226;DHT22;50545;56.064;26.178;2022-08-21T01:02:51;16.20;99.90
64226;DHT22;50545;56.064;26.178;2022-08-21T01:05:18;16.20;99.90
64226;DHT22;50545;56.064;26.178;2022-08-21T01:07:45;16.20;99.90
64226;DHT22;50545;56.064;26.178;2022-08-21T01:10:13;16.20;99.90
64226;DHT22;50545;56.064;26.178;2022-08-21T01:12:55;16.20;99.90
64226;DHT22;50545;56.064;26.178;2022-08-21T01:15:26;16.20;99.90
64226;DHT22;50545;56.064;26.178;2022-08-21T01:17:55;16.30;99.90
64226;DHT22;50545;56.064;26.178;2022-08-21T01:20:23;16.30;99.90
64226;DHT22;50545;56.064;26.178;2022-08-21T01:23:04;16.30;99.90
64226;DHT22;50545;56.064;26.178;2022-08-21T01:25:32;16.30;99.90
64226;DHT22;50545;56.064;26.178;2022-08-21T01:28:11;16.30;99.90
64226;DHT22;50545;56.064;26.178;2022-08-21T01:30:40;16.30;99.90
64226;DHT22;50545;56.064;26.178;2022-08-21T01:33:08;16.30;99.90
64226;DHT22;50545;56.064;26.178;2022-08-21T01:35:36;16.30;99.90
64226;DHT22;50545;56.064;26.178;2022-08-21T01:38:03;16.30;99.90
64226;DHT22;50545;56.064;26.178;2022-08-21T01:40:31;16.30;99.90
64226;DHT22;50545;56.064;26.178;2022-08-21T01:42:58;16.30;99.90
64226;DHT22;50545;56.064;26.178;2022-08-21T01:45:25;16.30;99.90
64226;DHT22;50545;56.064;26.178;2022-08-21T01:47:53;16.30;99.90
64226;DHT22;50545;56.064;26.178;2022-08-21T01:50:21;16.30;99.90
64226;DHT22;50545;56.064;26.178;2022-08-21T01:52:49;16.30;99.90
64226;DHT22;50545;56.064;26.178;2022-08-21T01:55:18;16.30;99.90
64226;DHT22;50545;56.064;26.178;2022-08-21T01:57:46;16.30;99.90
64226;DHT22;50545;56.064;26.178;2022-08-21T02:00:17;16.30;99.90
64226;DHT22;50545;56.064;26.178;2022-08-21T02:02:45;16.40;99.90
64226;DHT22;50545;56.064;26.178;2022-08-21T02:05:12;16.40;99.90
64226;DHT22;50545;56.064;26.178;2022-08-21T02:07:49;16.30;99.90
64226;DHT22;50545;56.064;26.178;2022-08-21T02:10:26;16.40;99.90
64226;DHT22;50545;56.064;26.178;2022-08-21T02:12:54;16.40;99.90
64226;DHT22;50545;56.064;26.178;2022-08-21T02:15:22;16.40;99.90
64226;DHT22;50545;56.064;26.178;2022-08-21T02:17:55;16.40;99.90
64226;DHT22;50545;56.064;26.178;2022-08-21T02:20:34;16.40;99.90
64226;DHT22;50545;56.064;26.178;2022-08-21T02:23:03;16.40;99.90
64226;DHT22;50545;56.064;26.178;2022-08-21T02:25:31;16.40;99.90
64226;DHT22;50545;56.064;26.178;2022-08-21T02:28:01;16.40;99.90
64226;DHT22;50545;56.064;26.178;2022-08-21T02:30:32;16.50;99.90
64226;DHT22;50545;56.064;26.178;2022-08-21T02:33:01;16.40;99.90
64226;DHT22;50545;56.064;26.178;2022-08-21T02:35:28;16.50;99.90
64226;DHT22;50545;56.064;26.178;2022-08-21T02:38:03;16.50;99.90
64226;DHT22;50545;56.064;26.178;2022-08-21T02:40:33;16.50;99.90
64226;DHT22;50545;56.064;26.178;2022-08-21T02:43:02;16.50;99.90
64226;DHT22;50545;56.064;26.178;2022-08-21T02:45:31;16.50;99.90
64226;DHT22;50545;56.064;26.178;2022-08-21T02:48:01;16.50;99.90
64226;DHT22;50545;56.064;26.178;2022-08-21T02:50:36;16.50;99.90
64226;DHT22;50545;56.064;26.178;2022-08-21T02:53:05;16.50;99.90
64226;DHT22;50545;56.064;26.178;2022-08-21T02:55:35;16.50;99.90
64226;DHT22;50545;56.064;26.178;2022-08-21T02:58:05;16.50;99.90
64226;DHT22;50545;56.064;26.178;2022-08-21T03:00:35;16.50;99.90
64226;DHT22;50545;56.064;26.178;2022-08-21T03:03:03;16.50;99.90
64226;DHT22;50545;56.064;26.178;2022-08-21T03:05:31;16.50;99.90
64226;DHT22;50545;56.064;26.178;2022-08-21T03:08:00;16.50;99.90
64226;DHT22;50545;56.064;26.178;2022-08-21T03:10:28;16.50;99.90
64226;DHT22;50545;56.064;26.178;2022-08-21T03:12:56;16.50;99.90
64226;DHT22;50545;56.064;26.178;2022-08-21T03:15:24;16.50;99.90
64226;DHT22;50545;56.064;26.178;2022-08-21T03:17:52;16.50;99.90
64226;DHT22;50545;56.064;26.178;2022-08-21T03:20:24;16.50;99.90
64226;DHT22;50545;56.064;26.178;2022-08-21T03:22:54;16.50;99.90
64226;DHT22;50545;56.064;26.178;2022-08-21T03:25:22;16.50;99.90
64226;DHT22;50545;56.064;26.178;2022-08-21T03:28:09;16.50;99.90
64226;DHT22;50545;56.064;26.178;2022-08-21T03:30:41;16.50;99.90
64226;DHT22;50545;56.064;26.178;2022-08-21T03:33:09;16.50;99.90
64226;DHT22;50545;56.064;26.178;2022-08-21T03:35:39;16.50;99.90
64226;DHT22;50545;56.064;26.178;2022-08-21T03:38:07;16.60;99.90
64226;DHT22;50545;56.064;26.178;2022-08-21T03:40:35;16.60;99.90
64226;DHT22;50545;56.064;26.178;2022-08-21T03:43:02;16.60;99.90
64226;DHT22;50545;56.064;26.178;2022-08-21T03:45:29;16.60;99.90
64226;DHT22;50545;56.064;26.178;2022-08-21T03:48:03;16.60;99.90
64226;DHT22;50545;56.064;26.178;2022-08-21T03:50:33;16.60;99.90
64226;DHT22;50545;56.064;26.178;2022-08-21T03:53:08;16.60;99.90
64226;DHT22;50545;56.064;26.178;2022-08-21T03:55:45;16.60;99.90
64226;DHT22;50545;56.064;26.178;2022-08-21T03:58:15;16.70;99.90
64226;DHT22;50545;56.064;26.178;2022-08-21T04:00:47;16.70;99.90
64226;DHT22;50545;56.064;26.178;2022-08-21T04:03:15;16.70;99.90
64226;DHT22;50545;56.064;26.178;2022-08-21T04:05:43;16.70;99.90
64226;DHT22;50545;56.064;26.178;2022-08-21T04:08:13;16.70;99.90
64226;DHT22;50545;56.064;26.178;2022-08-21T04:10:41;16.70;99.90
64226;DHT22;50545;56.064;26.178;2022-08-21T04:13:11;16.70;99.90
64226;DHT22;50545;56.064;26.178;2022-08-21T04:15:38;16.80;99.90
64226;DHT22;50545;56.064;26.178;2022-08-21T04:18:05;16.70;99.90
64226;DHT22;50545;56.064;26.178;2022-08-21T04:20:33;16.80;99.90
64226;DHT22;50545;56.064;26.178;2022-08-21T04:23:02;16.80;99.90
64226;DHT22;50545;56.064;26.178;2022-08-21T04:25:30;16.80;99.90
64226;DHT22;50545;56.064;26.178;2022-08-21T04:27:57;16.80;99.90
64226;DHT22;50545;56.064;26.178;2022-08-21T04:30:25;16.80;99.90
64226;DHT22;50545;56.064;26.178;2022-08-21T04:32:56;16.90;99.90
64226;DHT22;50545;56.064;26.178;2022-08-21T04:35:25;16.90;99.90
64226;DHT22;50545;56.064;26.178;2022-08-21T04:37:53;16.90;99.90
64226;DHT22;50545;56.064;26.178;2022-08-21T04:40:22;16.90;99.90
64226;DHT22;50545;56.064;26.178;2022-08-21T04:42:58;17.00;99.90
64226;DHT22;50545;56.064;26.178;2022-08-21T04:45:39;17.00;99.90
64226;DHT22;50545;56.064;26.178;2022-08-21T04:48:08;17.00;99.90
64226;DHT22;50545;56.064;26.178;2022-08-21T04:53:22;17.10;99.90
64226;DHT22;50545;56.064;26.178;2022-08-21T04:55:52;17.10;99.90
64226;DHT22;50545;56.064;26.178;2022-08-21T04:58:22;17.10;99.90
64226;DHT22;50545;56.064;26.178;2022-08-21T05:00:52;17.10;99.90
64226;DHT22;50545;56.064;26.178;2022-08-21T05:03:20;17.10;99.90
64226;DHT22;50545;56.064;26.178;2022-08-21T05:05:48;17.10;99.90
64226;DHT22;50545;56.064;26.178;2022-08-21T05:08:18;17.10;99.90
64226;DHT22;50545;56.064;26.178;2022-08-21T05:10:46;17.10;99.90
64226;DHT22;50545;56.064;26.178;2022-08-21T05:13:14;17.20;99.90
64226;DHT22;50545;56.064;26.178;2022-08-21T05:15:41;17.20;99.90
64226;DHT22;50545;56.064;26.178;2022-08-21T05:18:09;17.20;99.90
64226;DHT22;50545;56.064;26.178;2022-08-21T05:20:36;17.30;99.90
64226;DHT22;50545;56.064;26.178;2022-08-21T05:23:12;17.40;99.90
64226;DHT22;50545;56.064;26.178;2022-08-21T05:25:40;17.40;99.90
64226;DHT22;50545;56.064;26.178;2022-08-21T05:28:08;17.40;99.90
64226;DHT22;50545;56.064;26.178;2022-08-21T05:30:36;17.50;99.90
64226;DHT22;50545;56.064;26.178;2022-08-21T05:33:05;17.60;99.90
64226;DHT22;50545;56.064;26.178;2022-08-21T05:35:33;17.60;99.90
64226;DHT22;50545;56.064;26.178;2022-08-21T05:38:01;17.60;99.90
64226;DHT22;50545;56.064;26.178;2022-08-21T05:40:28;17.70;99.90
64226;DHT22;50545;56.064;26.178;2022-08-21T05:42:56;17.70;99.90
64226;DHT22;50545;56.064;26.178;2022-08-21T05:45:28;17.70;99.90
64226;DHT22;50545;56.064;26.178;2022-08-21T05:48:15;17.70;99.90
64226;DHT22;50545;56.064;26.178;2022-08-21T05:50:44;17.80;99.90
64226;DHT22;50545;56.064;26.178;2022-08-21T05:53:14;17.80;99.90
64226;DHT22;50545;56.064;26.178;2022-08-21T05:55:42;17.80;99.90
64226;DHT22;50545;56.064;26.178;2022-08-21T05:58:17;17.90;99.90
64226;DHT22;50545;56.064;26.178;2022-08-21T06:00:46;18.00;99.90
64226;DHT22;50545;56.064;26.178;2022-08-21T06:03:20;18.00;99.90
64226;DHT22;50545;56.064;26.178;2022-08-21T06:05:48;18.10;99.90
64226;DHT22;50545;56.064;26.178;2022-08-21T06:08:17;18.10;99.90
64226;DHT22;50545;56.064;26.178;2022-08-21T06:10:45;18.20;99.90
64226;DHT22;50545;56.064;26.178;2022-08-21T06:13:14;18.20;99.90
64226;DHT22;50545;56.064;26.178;2022-08-21T06:15:42;18.20;99.90
64226;DHT22;50545;56.064;26.178;2022-08-21T06:18:10;18.30;99.90
64226;DHT22;50545;56.064;26.178;2022-08-21T06:20:38;18.30;99.90
64226;DHT22;50545;56.064;26.178;2022-08-21T06:23:05;18.40;99.90
64226;DHT22;50545;56.064;26.178;2022-08-21T06:25:33;18.40;99.90
64226;DHT22;50545;56.064;26.178;2022-08-21T06:28:03;18.40;99.90
64226;DHT22;50545;56.064;26.178;2022-08-21T06:30:31;18.50;99.90
64226;DHT22;50545;56.064;26.178;2022-08-21T06:32:59;18.50;99.90
64226;DHT22;50545;56.064;26.178;2022-08-21T06:35:27;18.60;99.90
64226;DHT22;50545;56.064;26.178;2022-08-21T06:37:56;18.70;99.90
64226;DHT22;50545;56.064;26.178;2022-08-21T06:40:25;18.90;99.90
64226;DHT22;50545;56.064;26.178;2022-08-21T06:42:56;19.00;99.90
64226;DHT22;50545;56.064;26.178;2022-08-21T06:45:24;19.20;99.90
64226;DHT22;50545;56.064;26.178;2022-08-21T06:47:58;19.30;99.90
64226;DHT22;50545;56.064;26.178;2022-08-21T06:50:25;19.50;99.90
64226;DHT22;50545;56.064;26.178;2022-08-21T06:53:10;19.70;99.90
64226;DHT22;50545;56.064;26.178;2022-08-21T06:55:39;19.80;99.90
64226;DHT22;50545;56.064;26.178;2022-08-21T06:58:07;20.00;99.90
64226;DHT22;50545;56.064;26.178;2022-08-21T07:00:39;20.10;99.90
64226;DHT22;50545;56.064;26.178;2022-08-21T07:03:06;20.20;99.90
64226;DHT22;50545;56.064;26.178;2022-08-21T07:05:34;20.30;99.90
64226;DHT22;50545;56.064;26.178;2022-08-21T07:08:01;20.40;99.90
64226;DHT22;50545;56.064;26.178;2022-08-21T07:10:28;20.50;99.90
64226;DHT22;50545;56.064;26.178;2022-08-21T07:12:56;20.60;99.90
64226;DHT22;50545;56.064;26.178;2022-08-21T07:15:28;20.70;99.90
64226;DHT22;50545;56.064;26.178;2022-08-21T07:17:58;20.80;99.90
64226;DHT22;50545;56.064;26.178;2022-08-21T07:20:26;20.70;99.90
64226;DHT22;50545;56.064;26.178;2022-08-21T07:22:55;20.70;99.90
64226;DHT22;50545;56.064;26.178;2022-08-21T07:25:23;20.80;99.90
64226;DHT22;50545;56.064;26.178;2022-08-21T07:27:50;20.80;99.90
64226;DHT22;50545;56.064;26.178;2022-08-21T07:30:18;20.80;99.90
64226;DHT22;50545;56.064;26.178;2022-08-21T07:32:45;20.90;99.90
64226;DHT22;50545;56.064;26.178;2022-08-21T07:35:16;21.00;99.90
64226;DHT22;50545;56.064;26.178;2022-08-21T07:37:44;21.10;99.90
64226;DHT22;50545;56.064;26.178;2022-08-21T07:40:12;21.10;99.90
64226;DHT22;50545;56.064;26.178;2022-08-21T07:42:41;21.20;99.90
64226;DHT22;50545;56.064;26.178;2022-08-21T07:45:10;21.30;99.90
64226;DHT22;50545;56.064;26.178;2022-08-21T07:47:38;21.30;99.90
64226;DHT22;50545;56.064;26.178;2022-08-21T07:50:10;21.30;99.90
64226;DHT22;50545;56.064;26.178;2022-08-21T07:52:39;21.30;99.90
64226;DHT22;50545;56.064;26.178;2022-08-21T07:55:09;21.40;99.40
64226;DHT22;50545;56.064;26.178;2022-08-21T07:57:36;21.50;99.90
64226;DHT22;50545;56.064;26.178;2022-08-21T08:00:10;21.60;99.30
64226;DHT22;50545;56.064;26.178;2022-08-21T08:02:39;21.60;99.90
64226;DHT22;50545;56.064;26.178;2022-08-21T08:05:09;21.60;99.20
64226;DHT22;50545;56.064;26.178;2022-08-21T08:07:38;21.60;99.90
64226;DHT22;50545;56.064;26.178;2022-08-21T08:10:07;21.60;98.80
64226;DHT22;50545;56.064;26.178;2022-08-21T08:12:39;21.70;99.90
64226;DHT22;50545;56.064;26.178;2022-08-21T08:15:10;21.80;99.90
64226;DHT22;50545;56.064;26.178;2022-08-21T08:17:38;21.80;99.90
64226;DHT22;50545;56.064;26.178;2022-08-21T08:20:07;21.80;95.70
64226;DHT22;50545;56.064;26.178;2022-08-21T08:22:37;21.70;97.60
64226;DHT22;50545;56.064;26.178;2022-08-21T08:25:08;21.80;99.90
64226;DHT22;50545;56.064;26.178;2022-08-21T08:27:36;21.80;99.90
64226;DHT22;50545;56.064;26.178;2022-08-21T08:30:06;21.90;97.60
64226;DHT22;50545;56.064;26.178;2022-08-21T08:32:35;22.00;91.50
64226;DHT22;50545;56.064;26.178;2022-08-21T08:35:06;22.10;99.90
64226;DHT22;50545;56.064;26.178;2022-08-21T08:37:34;22.40;94.30
64226;DHT22;50545;56.064;26.178;2022-08-21T08:40:14;22.50;92.40
64226;DHT22;50545;56.064;26.178;2022-08-21T08:42:46;22.50;91.00
64226;DHT22;50545;56.064;26.178;2022-08-21T08:45:18;22.40;96.30
64226;DHT22;50545;56.064;26.178;2022-08-21T08:47:55;22.40;93.20
64226;DHT22;50545;56.064;26.178;2022-08-21T08:50:41;22.30;92.20
64226;DHT22;50545;56.064;26.178;2022-08-21T08:53:41;22.40;95.90
64226;DHT22;50545;56.064;26.178;2022-08-21T08:56:11;22.40;91.40
64226;DHT22;50545;56.064;26.178;2022-08-21T08:58:41;22.40;94.30
64226;DHT22;50545;56.064;26.178;2022-08-21T09:01:18;22.40;93.00
64226;DHT22;50545;56.064;26.178;2022-08-21T09:03:47;22.50;96.20
64226;DHT22;50545;56.064;26.178;2022-08-21T09:06:36;22.60;98.20
64226;DHT22;50545;56.064;26.178;2022-08-21T09:11:59;22.80;88.20
64226;DHT22;50545;56.064;26.178;2022-08-21T09:20:47;22.80;83.40
64226;DHT22;50545;56.064;26.178;2022-08-21T09:26:07;23.00;89.00
64226;DHT22;50545;56.064;26.178;2022-08-21T09:28:39;23.10;86.00
64226;DHT22;50545;56.064;26.178;2022-08-21T09:31:22;23.00;85.20
64226;DHT22;50545;56.064;26.178;2022-08-21T09:33:56;23.00;85.90
64226;DHT22;50545;56.064;26.178;2022-08-21T09:36:34;23.00;87.80
64226;DHT22;50545;56.064;26.178;2022-08-21T09:39:03;23.10;85.70
64226;DHT22;50545;56.064;26.178;2022-08-21T09:41:35;23.10;85.00
64226;DHT22;50545;56.064;26.178;2022-08-21T09:44:07;23.10;84.80
64226;DHT22;50545;56.064;26.178;2022-08-21T09:46:35;23.10;87.60
64226;DHT22;50545;56.064;26.178;2022-08-21T09:49:04;23.30;93.00
64226;DHT22;50545;56.064;26.178;2022-08-21T09:51:50;23.70;83.40
64226;DHT22;50545;56.064;26.178;2022-08-21T09:54:20;24.10;82.30
64226;DHT22;50545;56.064;26.178;2022-08-21T09:59:55;24.60;78.20
64226;DHT22;50545;56.064;26.178;2022-08-21T10:05:17;25.00;69.30
64226;DHT22;50545;56.064;26.178;2022-08-21T10:07:45;25.00;68.50
64226;DHT22;50545;56.064;26.178;2022-08-21T10:10:32;25.10;69.90
64226;DHT22;50545;56.064;26.178;2022-08-21T10:13:21;25.10;71.40
64226;DHT22;50545;56.064;26.178;2022-08-21T10:24:18;25.00;70.90
64226;DHT22;50545;56.064;26.178;2022-08-21T10:30:13;24.90;69.10
64226;DHT22;50545;56.064;26.178;2022-08-21T10:41:49;25.00;73.70
64226;DHT22;50545;56.064;26.178;2022-08-21T10:47:25;25.10;68.40
64226;DHT22;50545;56.064;26.178;2022-08-21T10:50:09;25.10;73.40
64226;DHT22;50545;56.064;26.178;2022-08-21T10:55:36;25.10;70.60
64226;DHT22;50545;56.064;26.178;2022-08-21T10:58:12;25.20;68.00
64226;DHT22;50545;56.064;26.178;2022-08-21T11:00:48;25.20;71.00
64226;DHT22;50545;56.064;26.178;2022-08-21T11:03:34;25.40;71.90
64226;DHT22;50545;56.064;26.178;2022-08-21T11:06:31;25.50;74.80
64226;DHT22;50545;56.064;26.178;2022-08-21T11:09:07;25.90;68.30
64226;DHT22;50545;56.064;26.178;2022-08-21T11:14:52;26.40;70.10
64226;DHT22;50545;56.064;26.178;2022-08-21T11:17:35;26.50;63.70
64226;DHT22;50545;56.064;26.178;2022-08-21T11:20:23;26.20;63.50
64226;DHT22;50545;56.064;26.178;2022-08-21T11:23:07;25.90;63.50
64226;DHT22;50545;56.064;26.178;2022-08-21T11:25:41;25.80;64.40
64226;DHT22;50545;56.064;26.178;2022-08-21T11:28:28;25.80;66.40
64226;DHT22;50545;56.064;26.178;2022-08-21T11:42:38;26.90;64.50
64226;DHT22;50545;56.064;26.178;2022-08-21T11:47:58;27.00;61.90
64226;DHT22;50545;56.064;26.178;2022-08-21T11:50:30;26.90;61.10
64226;DHT22;50545;56.064;26.178;2022-08-21T11:53:09;26.90;59.70
64226;DHT22;50545;56.064;26.178;2022-08-21T11:58:59;27.10;63.70
64226;DHT22;50545;56.064;26.178;2022-08-21T12:01:33;27.30;62.70
64226;DHT22;50545;56.064;26.178;2022-08-21T12:04:10;27.40;61.50
64226;DHT22;50545;56.064;26.178;2022-08-21T12:06:44;27.40;61.00
64226;DHT22;50545;56.064;26.178;2022-08-21T12:14:43;27.70;59.10
64226;DHT22;50545;56.064;26.178;2022-08-21T12:17:34;27.70;60.10
64226;DHT22;50545;56.064;26.178;2022-08-21T12:20:26;27.60;60.60
64226;DHT22;50545;56.064;26.178;2022-08-21T12:23:16;27.70;61.70
64226;DHT22;50545;56.064;26.178;2022-08-21T12:25:48;27.90;60.20
64226;DHT22;50545;56.064;26.178;2022-08-21T12:28:26;28.00;60.50
64226;DHT22;50545;56.064;26.178;2022-08-21T12:30:54;28.10;61.40
64226;DHT22;50545;56.064;26.178;2022-08-21T12:36:05;28.00;58.60
64226;DHT22;50545;56.064;26.178;2022-08-21T12:38:45;28.10;59.60
64226;DHT22;50545;56.064;26.178;2022-08-21T12:41:21;28.30;60.40
64226;DHT22;50545;56.064;26.178;2022-08-21T12:44:08;28.60;60.10
64226;DHT22;50545;56.064;26.178;2022-08-21T12:46:51;28.60;56.30
64226;DHT22;50545;56.064;26.178;2022-08-21T12:50:04;28.10;58.80
64226;DHT22;50545;56.064;26.178;2022-08-21T12:52:30;27.80;59.90
64226;DHT22;50545;56.064;26.178;2022-08-21T12:55:06;27.70;59.90
64226;DHT22;50545;56.064;26.178;2022-08-21T12:57:36;27.80;61.30
64226;DHT22;50545;56.064;26.178;2022-08-21T13:00:07;27.80;60.90
64226;DHT22;50545;56.064;26.178;2022-08-21T13:02:46;27.60;60.90
64226;DHT22;50545;56.064;26.178;2022-08-21T13:05:32;27.00;60.60
64226;DHT22;50545;56.064;26.178;2022-08-21T13:08:04;26.60;61.90
64226;DHT22;50545;56.064;26.178;2022-08-21T13:10:33;26.30;64.60
64226;DHT22;50545;56.064;26.178;2022-08-21T13:13:05;26.10;64.90
64226;DHT22;50545;56.064;26.178;2022-08-21T13:15:40;26.00;68.20
64226;DHT22;50545;56.064;26.178;2022-08-21T13:18:31;26.00;65.90
64226;DHT22;50545;56.064;26.178;2022-08-21T13:21:38;26.00;64.00
64226;DHT22;50545;56.064;26.178;2022-08-21T13:27:29;26.00;68.60
64226;DHT22;50545;56.064;26.178;2022-08-21T13:32:34;26.00;66.60
64226;DHT22;50545;56.064;26.178;2022-08-21T13:35:30;26.00;68.20
64226;DHT22;50545;56.064;26.178;2022-08-21T13:37:56;26.00;66.70
64226;DHT22;50545;56.064;26.178;2022-08-21T13:40:39;25.90;67.80
64226;DHT22;50545;56.064;26.178;2022-08-21T13:43:13;26.00;69.80
64226;DHT22;50545;56.064;26.178;2022-08-21T13:45:49;26.20;64.30
64226;DHT22;50545;56.064;26.178;2022-08-21T13:48:17;26.10;65.30
64226;DHT22;50545;56.064;26.178;2022-08-21T13:50:45;26.00;67.10
64226;DHT22;50545;56.064;26.178;2022-08-21T13:53:31;26.00;66.50
64226;DHT22;50545;56.064;26.178;2022-08-21T13:56:00;25.80;67.30
64226;DHT22;50545;56.064;26.178;2022-08-21T13:58:30;25.70;68.10
64226;DHT22;50545;56.064;26.178;2022-08-21T14:01:00;25.50;68.30
64226;DHT22;50545;56.064;26.178;2022-08-21T14:03:47;25.50;69.90
64226;DHT22;50545;56.064;26.178;2022-08-21T14:06:22;25.40;68.10
64226;DHT22;50545;56.064;26.178;2022-08-21T14:09:03;25.40;70.30
64226;DHT22;50545;56.064;26.178;2022-08-21T14:11:35;25.40;68.90
64226;DHT22;50545;56.064;26.178;2022-08-21T14:14:21;25.40;71.00
64226;DHT22;50545;56.064;26.178;2022-08-21T14:17:02;25.60;71.70
64226;DHT22;50545;56.064;26.178;2022-08-21T14:19:50;25.60;68.60
64226;DHT22;50545;56.064;26.178;2022-08-21T14:22:45;25.70;68.10
64226;DHT22;50545;56.064;26.178;2022-08-21T14:30:38;25.60;68.60
64226;DHT22;50545;56.064;26.178;2022-08-21T14:33:11;25.70;71.00
64226;DHT22;50545;56.064;26.178;2022-08-21T14:35:39;25.70;69.50
64226;DHT22;50545;56.064;26.178;2022-08-21T14:38:19;25.80;69.40
64226;DHT22;50545;56.064;26.178;2022-08-21T14:40:50;25.80;69.70
64226;DHT22;50545;56.064;26.178;2022-08-21T14:43:18;25.70;66.60
64226;DHT22;50545;56.064;26.178;2022-08-21T14:45:46;25.50;68.90
64226;DHT22;50545;56.064;26.178;2022-08-21T14:48:14;25.40;67.70
64226;DHT22;50545;56.064;26.178;2022-08-21T14:50:41;25.20;69.40
64226;DHT22;50545;56.064;26.178;2022-08-21T14:53:09;25.10;71.60
64226;DHT22;50545;56.064;26.178;2022-08-21T14:55:38;24.90;70.80
64226;DHT22;50545;56.064;26.178;2022-08-21T14:58:25;24.80;71.70
64226;DHT22;50545;56.064;26.178;2022-08-21T15:00:54;24.70;71.60
64226;DHT22;50545;56.064;26.178;2022-08-21T15:03:22;24.50;70.70
64226;DHT22;50545;56.064;26.178;2022-08-21T15:05:49;24.40;72.90
64226;DHT22;50545;56.064;26.178;2022-08-21T15:08:17;24.30;73.40
64226;DHT22;50545;56.064;26.178;2022-08-21T15:10:45;24.10;73.30
64226;DHT22;50545;56.064;26.178;2022-08-21T15:13:32;24.00;73.80
64226;DHT22;50545;56.064;26.178;2022-08-21T15:16:00;23.90;74.80
64226;DHT22;50545;56.064;26.178;2022-08-21T15:18:28;23.80;75.50
64226;DHT22;50545;56.064;26.178;2022-08-21T15:20:56;23.70;75.10
64226;DHT22;50545;56.064;26.178;2022-08-21T15:23:24;23.60;76.50
64226;DHT22;50545;56.064;26.178;2022-08-21T15:25:52;23.40;76.30
64226;DHT22;50545;56.064;26.178;2022-08-21T15:28:20;23.30;77.60
64226;DHT22;50545;56.064;26.178;2022-08-21T15:30:50;23.30;78.90
64226;DHT22;50545;56.064;26.178;2022-08-21T15:33:18;23.30;82.50
64226;DHT22;50545;56.064;26.178;2022-08-21T15:35:45;23.20;82.00
64226;DHT22;50545;56.064;26.178;2022-08-21T15:38:13;23.30;81.50
64226;DHT22;50545;56.064;26.178;2022-08-21T15:40:42;23.30;83.30
64226;DHT22;50545;56.064;26.178;2022-08-21T15:43:35;23.40;83.80
64226;DHT22;50545;56.064;26.178;2022-08-21T15:46:04;23.50;82.20
64226;DHT22;50545;56.064;26.178;2022-08-21T15:48:32;23.50;81.30
64226;DHT22;50545;56.064;26.178;2022-08-21T15:50:59;23.40;80.70
64226;DHT22;50545;56.064;26.178;2022-08-21T15:53:26;23.50;80.90
64226;DHT22;50545;56.064;26.178;2022-08-21T15:55:54;23.40;81.30
64226;DHT22;50545;56.064;26.178;2022-08-21T15:58:21;23.30;84.30
64226;DHT22;50545;56.064;26.178;2022-08-21T16:00:49;23.20;85.60
64226;DHT22;50545;56.064;26.178;2022-08-21T16:03:17;23.10;85.40
64226;DHT22;50545;56.064;26.178;2022-08-21T16:05:48;23.10;86.40
64226;DHT22;50545;56.064;26.178;2022-08-21T16:08:20;23.10;91.90
64226;DHT22;50545;56.064;26.178;2022-08-21T16:10:47;23.10;92.20
64226;DHT22;50545;56.064;26.178;2022-08-21T16:13:20;23.10;93.50
64226;DHT22;50545;56.064;26.178;2022-08-21T16:15:49;23.00;92.90
64226;DHT22;50545;56.064;26.178;2022-08-21T16:18:18;22.90;92.10
64226;DHT22;50545;56.064;26.178;2022-08-21T16:20:46;22.80;91.60
64226;DHT22;50545;56.064;26.178;2022-08-21T16:23:13;22.70;91.80
64226;DHT22;50545;56.064;26.178;2022-08-21T16:25:42;22.70;93.10
64226;DHT22;50545;56.064;26.178;2022-08-21T16:28:13;22.60;93.90
64226;DHT22;50545;56.064;26.178;2022-08-21T16:30:43;22.50;94.10
64226;DHT22;50545;56.064;26.178;2022-08-21T16:33:22;22.40;94.50
64226;DHT22;50545;56.064;26.178;2022-08-21T16:35:51;22.30;96.70
64226;DHT22;50545;56.064;26.178;2022-08-21T16:38:18;22.20;98.20
64226;DHT22;50545;56.064;26.178;2022-08-21T16:40:46;22.20;99.70
64226;DHT22;50545;56.064;26.178;2022-08-21T16:43:13;22.30;99.90
64226;DHT22;50545;56.064;26.178;2022-08-21T16:45:42;22.30;99.90
64226;DHT22;50545;56.064;26.178;2022-08-21T16:48:09;22.40;99.70
64226;DHT22;50545;56.064;26.178;2022-08-21T16:50:37;22.50;99.40
64226;DHT22;50545;56.064;26.178;2022-08-21T16:53:05;22.50;99.30
64226;DHT22;50545;56.064;26.178;2022-08-21T16:55:36;22.50;99.70
64226;DHT22;50545;56.064;26.178;2022-08-21T16:58:09;22.40;99.60
64226;DHT22;50545;56.064;26.178;2022-08-21T17:00:36;22.40;98.70
64226;DHT22;50545;56.064;26.178;2022-08-21T17:03:03;22.30;97.60
64226;DHT22;50545;56.064;26.178;2022-08-21T17:05:31;22.20;97.30
64226;DHT22;50545;56.064;26.178;2022-08-21T17:07:58;22.20;97.70
64226;DHT22;50545;56.064;26.178;2022-08-21T17:10:26;22.00;97.50